Time;durP1;ratioP1;P1;durP2;ratioP2;P2;SDS_P1;SDS_P2;PMS_P1;PMS_P2;Temp;Humidity;BMP_temperature;BMP_pressure;BME280_temperature;BME280_humidity;BME280_pressure;Samples;Min_cycle;Max_cycle;Signal;HPM_P1;HPM_P2
2021/11/02 00:00:39;;;;;;;;;1.75;1.75;;;;;11.26;83.32;99687.50;5048567;28;45353;-58
2021/11/02 00:03:06;;;;;;;;;3.00;2.00;;;;;11.25;84.08;99681.47;5048488;28;45379;-59
2021/11/02 00:05:32;;;;;;;;;4.00;2.00;;;;;11.27;83.56;99687.44;5048016;28;45395;-59
2021/11/02 00:07:57;;;;;;;;;2.25;1.75;;;;;11.21;83.93;99679.94;5050176;28;45372;-59
2021/11/02 00:10:23;;;;;;;;;2.00;1.75;;;;;11.28;83.60;99691.72;5048508;28;45628;-59
2021/11/02 00:12:49;;;;;;;;;2.00;1.00;;;;;11.28;83.27;99691.72;5047221;28;45505;-59
2021/11/02 00:15:21;;;;;;;;;2.00;1.50;;;;;11.20;83.71;99682.56;5045472;28;45564;-61
2021/11/02 00:17:48;;;;;;;;;3.50;2.00;;;;;11.10;84.11;99681.34;5047005;28;45438;-59
2021/11/02 00:20:14;;;;;;;;;2.50;1.25;;;;;11.03;84.57;99677.34;5047008;28;46306;-58
2021/11/02 00:22:41;;;;;;;;;1.00;1.00;;;;;10.97;84.42;99663.69;5049548;28;45877;-60
2021/11/02 00:25:08;;;;;;;;;11.50;10.50;;;;;10.97;85.47;99673.25;5047368;28;45486;-60
2021/11/02 00:27:40;;;;;;;;;1.75;0.50;;;;;10.94;85.19;99678.59;5045998;28;45350;-60
2021/11/02 00:30:09;;;;;;;;;1.00;1.00;;;;;10.91;85.56;99678.75;5047876;28;47121;-60
2021/11/02 00:32:35;;;;;;;;;2.00;0.25;;;;;10.92;85.50;99672.63;5049201;28;45360;-61
2021/11/02 00:35:00;;;;;;;;;3.00;1.00;;;;;10.96;85.48;99667.22;5049980;28;45276;-60
2021/11/02 00:37:26;;;;;;;;;2.25;1.25;;;;;11.05;85.55;99667.72;5048384;28;45561;-60
2021/11/02 00:39:53;;;;;;;;;2.50;0.75;;;;;11.10;85.43;99660.53;5048767;28;47158;-60
2021/11/02 00:42:19;;;;;;;;;3.00;1.50;;;;;11.09;85.39;99666.66;5048873;28;45759;-62
2021/11/02 00:44:45;;;;;;;;;29.50;19.75;;;;;11.02;85.84;99658.31;5049501;28;45353;-62
2021/11/02 00:47:17;;;;;;;;;6.50;6.25;;;;;11.00;86.21;99656.66;5048247;28;45608;-61
2021/11/02 00:49:43;;;;;;;;;1.75;0.00;;;;;10.96;86.33;99656.81;5048375;28;46511;-61
2021/11/02 00:52:08;;;;;;;;;3.00;2.75;;;;;10.87;86.12;99644.25;5047831;28;45493;-62
2021/11/02 00:54:34;;;;;;;;;2.00;1.00;;;;;10.92;86.24;99642.28;5047545;28;45414;-62
2021/11/02 00:56:59;;;;;;;;;1.50;0.75;;;;;10.96;86.23;99646.41;5048074;28;45673;-62
2021/11/02 00:59:25;;;;;;;;;2.75;1.00;;;;;10.93;87.05;99641.34;5048523;28;46065;-61
2021/11/02 01:01:50;;;;;;;;;2.00;2.00;;;;;10.85;87.39;99630.50;5049284;28;45473;-61
2021/11/02 01:04:16;;;;;;;;;0.00;0.00;;;;;10.76;87.89;99636.09;5046745;28;45506;-62
2021/11/02 01:06:41;;;;;;;;;2.00;1.00;;;;;10.72;87.49;99634.56;5044001;28;45665;-61
2021/11/02 01:09:07;;;;;;;;;1.00;1.00;;;;;10.68;88.05;99640.81;5046169;28;45948;-61
2021/11/02 01:11:33;;;;;;;;;0.00;0.00;;;;;10.65;87.75;99634.00;5046983;28;45820;-61
2021/11/02 01:13:59;;;;;;;;;0.25;0.25;;;;;10.66;88.22;99646.06;5044866;28;46447;-61
2021/11/02 01:16:25;;;;;;;;;0.25;0.25;;;;;10.62;89.12;99636.75;5044423;28;45688;-61
2021/11/02 01:18:52;;;;;;;;;1.00;1.00;;;;;10.62;88.67;99634.16;5047244;28;46577;-59
2021/11/02 01:21:17;;;;;;;;;1.00;1.00;;;;;10.63;88.82;99629.78;5046376;28;45825;-59
2021/11/02 01:23:43;;;;;;;;;1.00;0.00;;;;;10.59;89.41;99633.41;5047275;28;45532;-60
2021/11/02 01:26:08;;;;;;;;;0.00;0.00;;;;;10.55;88.63;99630.13;5045583;28;45336;-60
2021/11/02 01:28:34;;;;;;;;;9.25;4.75;;;;;10.53;89.61;99631.94;5045859;28;46120;-60
2021/11/02 01:30:59;;;;;;;;;9.00;8.00;;;;;10.52;88.82;99622.47;5046031;28;45406;-59
2021/11/02 01:33:24;;;;;;;;;0.75;0.75;;;;;10.51;89.61;99625.97;5047997;28;45438;-60
2021/11/02 01:35:50;;;;;;;;;0.00;0.00;;;;;10.52;89.10;99625.06;5047869;28;45911;-58
2021/11/02 01:38:18;;;;;;;;;1.00;1.00;;;;;10.55;89.50;99619.72;5058172;28;45414;-60
2021/11/02 01:40:44;;;;;;;;;1.50;1.00;;;;;10.60;88.91;99620.34;5062159;28;45447;-62
2021/11/02 01:43:11;;;;;;;;;0.75;0.00;;;;;10.64;88.99;99627.13;5052324;28;45331;-61
2021/11/02 01:45:36;;;;;;;;;1.75;0.75;;;;;10.65;89.04;99623.59;5053390;28;45208;-63
2021/11/02 01:48:02;;;;;;;;;2.50;1.00;;;;;10.71;88.89;99621.63;5050698;28;45916;-64
2021/11/02 01:50:28;;;;;;;;;0.00;0.00;;;;;10.75;88.55;99618.81;5051555;28;45580;-62
2021/11/02 01:52:54;;;;;;;;;2.75;0.00;;;;;10.81;88.72;99620.28;5051597;28;45451;-60
2021/11/02 01:55:19;;;;;;;;;1.75;1.25;;;;;10.81;88.46;99623.75;5051165;28;45486;-60
2021/11/02 01:57:46;;;;;;;;;1.00;1.00;;;;;10.81;88.38;99613.34;5051499;28;46065;-59
2021/11/02 02:00:15;;;;;;;;;1.00;1.00;;;;;10.72;89.29;99623.31;5051009;28;45468;-58
2021/11/02 02:03:00;;;;;;;;;1.50;0.00;;;;;10.61;90.14;99611.69;5052648;28;45313;-58
2021/11/02 02:05:51;;;;;;;;;1.00;1.00;;;;;10.55;90.22;99624.91;5050165;28;45440;-58
2021/11/02 02:08:19;;;;;;;;;1.00;1.00;;;;;10.50;90.34;99624.28;5050294;28;46245;-58
2021/11/02 02:11:36;;;;;;;;;1.50;1.00;;;;;10.49;91.03;99630.41;5050915;28;45391;-58
2021/11/02 02:14:36;;;;;;;;;4.00;1.00;;;;;10.45;90.71;99626.25;5038923;28;45391;-58
2021/11/02 02:17:09;;;;;;;;;2.75;0.50;;;;;10.47;90.13;99626.19;5013676;28;45716;-58
2021/11/02 02:19:46;;;;;;;;;1.75;1.00;;;;;10.48;90.09;99615.72;5049909;28;47107;-58
2021/11/02 02:22:57;;;;;;;;;2.25;0.75;;;;;10.53;90.60;99624.16;5049091;28;45498;-58
2021/11/02 02:25:47;;;;;;;;;2.00;1.00;;;;;10.61;90.23;99629.88;5031977;28;45306;-58
2021/11/02 02:28:20;;;;;;;;;2.00;1.75;;;;;10.63;90.02;99634.97;5050671;28;45362;-58
2021/11/02 02:30:52;;;;;;;;;1.00;1.00;;;;;10.66;90.14;99625.28;5048853;28;46133;-59
2021/11/02 02:33:21;;;;;;;;;0.50;0.00;;;;;10.65;89.73;99633.16;5050838;28;45288;-59
2021/11/02 02:35:49;;;;;;;;;1.75;1.00;;;;;10.63;90.23;99633.22;5051344;28;45437;-58
2021/11/02 02:38:18;;;;;;;;;3.00;1.75;;;;;10.60;90.02;99630.75;5048179;28;45294;-60
2021/11/02 02:40:46;;;;;;;;;1.00;1.00;;;;;10.57;89.99;99625.69;5049910;28;45522;-60
2021/11/02 02:43:12;;;;;;;;;0.00;0.00;;;;;10.57;89.43;99619.66;5050100;28;45653;-60
2021/11/02 02:45:40;;;;;;;;;0.75;0.75;;;;;10.56;89.13;99620.56;5050655;28;45469;-60
2021/11/02 02:48:06;;;;;;;;;1.00;0.25;;;;;10.59;89.10;99613.47;5049464;28;45399;-59
2021/11/02 02:50:33;;;;;;;;;3.00;2.25;;;;;10.59;88.78;99613.47;5048711;28;47129;-59
2021/11/02 02:53:01;;;;;;;;;1.00;1.00;;;;;10.58;89.17;99616.16;5048489;28;45741;-59
2021/11/02 02:55:30;;;;;;;;;1.00;1.00;;;;;10.52;89.08;99604.28;5050848;28;45274;-59
2021/11/02 02:57:56;;;;;;;;;1.00;0.25;;;;;10.58;88.88;99611.78;5051171;28;45506;-59
2021/11/02 03:00:21;;;;;;;;;1.00;1.00;;;;;10.59;88.91;99607.44;5059068;28;46204;-59
2021/11/02 03:02:50;;;;;;;;;0.25;0.25;;;;;10.62;89.26;99613.34;5060988;28;45303;-59
2021/11/02 03:05:18;;;;;;;;;2.75;2.00;;;;;10.68;89.26;99609.63;5047829;28;45311;-59
2021/11/02 03:07:43;;;;;;;;;1.00;1.00;;;;;10.75;88.95;99604.97;5060887;28;45174;-59
2021/11/02 03:10:10;;;;;;;;;1.00;1.00;;;;;10.81;88.80;99599.50;5060657;28;47020;-59
2021/11/02 03:12:38;;;;;;;;;2.75;0.75;;;;;10.88;88.05;99598.31;5060850;28;45149;-59
2021/11/02 03:17:51;;;;;;;;;1.25;1.00;;;;;10.86;87.77;99595.78;5060883;28;45354;-59
2021/11/02 03:50:44;;;;;;;;;1.00;1.00;;;;;10.52;89.09;99609.47;5058593;28;45334;-60
2021/11/02 03:56:22;;;;;;;;;2.25;1.00;;;;;10.50;89.86;99616.50;5060065;28;45165;-63
2021/11/02 03:59:21;;;;;;;;;0.50;0.50;;;;;10.49;89.86;99606.19;5058060;28;45488;-61
2021/11/02 04:29:55;;;;;;;;;2.00;2.00;;;;;10.56;90.21;99629.19;5059742;28;45315;-59
2021/11/02 05:59:24;;;;;;;;;2.00;2.00;;;;;10.80;87.40;99632.44;5058865;28;45608;-59
2021/11/02 06:01:59;;;;;;;;;2.00;2.00;;;;;10.76;87.86;99632.66;5061719;28;45454;-59
2021/11/02 06:07:35;;;;;;;;;3.00;2.00;;;;;10.79;88.33;99635.94;5061238;28;45510;-59
2021/11/02 06:29:53;;;;;;;;;3.50;2.00;;;;;10.63;86.18;99666.16;5038880;28;45389;-61
2021/11/02 06:32:29;;;;;;;;;1.75;1.25;;;;;10.63;85.25;99663.56;5038849;28;45463;-60
2021/11/02 06:35:18;;;;;;;;;1.00;1.00;;;;;10.62;84.87;99662.72;5050659;28;45573;-60
2021/11/02 07:16:51;;;;;;;;;2.00;2.00;;;;;10.25;84.64;99689.47;5059959;28;45301;-59
2021/11/02 07:19:26;;;;;;;;;37.00;35.25;;;;;10.21;84.72;99690.50;5060107;28;45295;-58
2021/11/02 08:45:56;;;;;;;;;1.25;1.25;;;;;10.93;81.49;99770.50;5063365;28;45374;-61
2021/11/02 08:48:21;;;;;;;;;3.00;1.50;;;;;10.95;81.40;99771.25;5062796;28;45466;-70
2021/11/02 08:50:52;;;;;;;;;0.75;0.50;;;;;10.95;79.86;99774.69;5062898;28;45354;-68
2021/11/02 08:53:21;;;;;;;;;3.00;2.25;;;;;10.95;80.53;99773.88;5062498;28;45228;-67
2021/11/02 08:55:49;;;;;;;;;4.00;2.00;;;;;10.99;79.66;99775.41;5063024;28;45311;-66
2021/11/02 08:58:16;;;;;;;;;3.00;1.00;;;;;11.07;79.26;99767.28;5060587;28;45550;-65
2021/11/02 09:00:42;;;;;;;;;4.25;1.25;;;;;11.05;79.76;99780.34;5062609;28;45327;-66
2021/11/02 09:03:13;;;;;;;;;2.25;2.25;;;;;11.07;78.91;99778.53;5060003;28;45324;-65
2021/11/02 09:05:41;;;;;;;;;11.00;10.25;;;;;11.07;78.95;99780.28;5062874;28;45334;-67
2021/11/02 09:08:10;;;;;;;;;7.25;3.00;;;;;11.03;78.73;99784.78;5062502;28;45478;-68
2021/11/02 09:10:39;;;;;;;;;3.25;2.75;;;;;11.12;78.68;99789.56;5062780;28;46154;-64
2021/11/02 09:13:07;;;;;;;;;3.25;3.25;;;;;11.14;77.84;99781.69;5062619;28;45655;-65
2021/11/02 09:15:36;;;;;;;;;3.00;2.00;;;;;11.13;77.09;99783.44;5062864;28;45259;-69
2021/11/02 09:18:07;;;;;;;;;4.00;3.00;;;;;11.26;77.82;99778.53;5061424;28;45330;-65
2021/11/02 09:20:34;;;;;;;;;6.50;2.75;;;;;11.46;77.51;99778.47;5062443;28;47286;-70
2021/11/02 09:23:00;;;;;;;;;11.50;4.00;;;;;11.70;77.00;99780.84;5059485;28;45371;-67
2021/11/02 09:25:26;;;;;;;;;3.00;2.50;;;;;11.88;77.00;99774.78;5055624;28;45559;-65
2021/11/02 09:27:51;;;;;;;;;1.50;1.50;;;;;12.07;74.28;99774.72;5062535;28;45374;-69
2021/11/02 09:30:20;;;;;;;;;4.00;4.00;;;;;12.27;72.94;99785.00;5062274;28;46200;-71
2021/11/02 09:32:48;;;;;;;;;2.25;1.25;;;;;12.42;72.57;99778.19;5062889;28;45435;-71
2021/11/02 09:35:16;;;;;;;;;3.00;2.00;;;;;12.39;71.00;99787.00;5062621;28;45347;-71
2021/11/02 09:37:46;;;;;;;;;1.00;1.00;;;;;12.85;70.80;99794.25;5052349;28;45415;-71
2021/11/02 09:40:30;;;;;;;;;5.50;5.00;;;;;13.02;69.75;99791.63;5062477;28;45318;-70
2021/11/02 09:43:06;;;;;;;;;9.50;4.50;;;;;13.59;69.22;99787.63;5063803;28;45232;-71
2021/11/02 09:45:57;;;;;;;;;10.50;9.75;;;;;13.91;69.99;99791.09;5060537;28;45273;-71
2021/11/02 09:48:43;;;;;;;;;3.00;2.00;;;;;14.03;68.48;99792.19;5062014;28;45295;-71
2021/11/02 09:51:39;;;;;;;;;1.50;1.00;;;;;14.15;69.02;99781.00;5062094;28;46199;-73
2021/11/02 09:54:24;;;;;;;;;2.25;2.25;;;;;14.28;69.37;99789.84;5061609;28;45619;-71
2021/11/02 09:57:28;;;;;;;;;4.00;2.00;;;;;14.38;64.24;99791.91;5063293;28;45699;-71
2021/11/02 10:00:08;;;;;;;;;3.00;1.25;;;;;14.63;65.49;99791.34;5061395;28;45305;-71
2021/11/02 10:02:48;;;;;;;;;1.00;1.00;;;;;15.94;62.49;99794.53;5056665;28;45433;-71
2021/11/02 10:05:35;;;;;;;;;2.00;1.25;;;;;16.02;61.60;99794.88;5061696;28;45255;-71
2021/11/02 10:08:34;;;;;;;;;1.00;1.00;;;;;15.83;58.64;99794.38;5061570;28;45216;-72
2021/11/02 10:11:30;;;;;;;;;2.75;2.75;;;;;15.76;61.11;99793.09;5061882;28;45507;-71
2021/11/02 10:14:00;;;;;;;;;3.50;2.00;;;;;17.32;61.81;99802.69;5062689;28;46115;-66
2021/11/02 10:16:39;;;;;;;;;4.75;4.00;;;;;18.14;58.07;99803.78;5060255;28;45183;-76
2021/11/02 10:19:26;;;;;;;;;3.50;2.50;;;;;18.27;54.57;99802.91;5061432;28;45338;-66
2021/11/02 10:22:03;;;;;;;;;5.25;4.75;;;;;18.98;54.55;99808.00;5061110;28;45313;-64
2021/11/02 10:25:06;;;;;;;;;1.50;1.50;;;;;20.81;48.96;99808.97;5052246;28;45406;-58
2021/11/02 10:27:34;;;;;;;;;1.75;1.75;;;;;20.52;48.39;99810.63;5058238;28;45584;-58
2021/11/02 10:30:11;;;;;;;;;3.25;1.00;;;;;19.25;47.13;99820.00;5058786;28;45275;-59
2021/11/02 10:32:41;;;;;;;;;6.00;4.25;;;;;17.96;51.20;99813.03;5060366;28;45284;-61
2021/11/02 10:35:29;;;;;;;;;3.00;0.75;;;;;17.25;51.02;99826.84;5061506;28;45552;-65
2021/11/02 10:38:22;;;;;;;;;4.50;4.00;;;;;17.91;52.49;99821.25;5050320;28;45622;-59
2021/11/02 10:40:52;;;;;;;;;1.75;0.25;;;;;18.75;47.85;99822.91;5061174;28;45255;-59
2021/11/02 10:43:32;;;;;;;;;3.25;1.75;;;;;18.26;49.63;99825.72;5060886;28;45398;-60
2021/11/02 10:46:07;;;;;;;;;3.00;2.00;;;;;17.34;51.35;99823.56;5060661;28;45421;-60
2021/11/02 10:48:49;;;;;;;;;1.50;1.00;;;;;16.79;52.66;99823.91;5059541;28;45469;-61
2021/11/02 10:51:44;;;;;;;;;1.75;1.75;;;;;16.22;54.62;99818.94;5061506;28;45367;-61
2021/11/02 10:54:34;;;;;;;;;1.00;1.00;;;;;16.11;56.06;99823.09;5050498;28;45271;-62
2021/11/02 10:57:02;;;;;;;;;2.50;2.00;;;;;15.92;55.53;99817.38;5048996;28;45282;-63
2021/11/02 10:59:31;;;;;;;;;2.75;1.25;;;;;15.62;56.22;99824.56;5056785;28;45735;-71
2021/11/02 11:01:58;;;;;;;;;1.50;1.00;;;;;15.30;57.09;99816.91;5060658;28;45440;-71
2021/11/02 11:04:31;;;;;;;;;0.50;0.50;;;;;15.28;57.07;99817.94;5059330;28;45321;-70
2021/11/02 11:06:58;;;;;;;;;1.00;1.00;;;;;15.02;57.41;99815.13;5060170;28;45540;-70
2021/11/02 11:09:28;;;;;;;;;3.50;1.00;;;;;14.74;57.84;99812.47;5060644;28;45316;-70
2021/11/02 11:11:55;;;;;;;;;1.00;1.00;;;;;14.53;58.95;99811.97;5057573;28;45403;-63
2021/11/02 11:14:29;;;;;;;;;2.00;2.00;;;;;14.44;59.79;99810.75;5057587;28;45567;-65
2021/11/02 11:16:56;;;;;;;;;1.00;1.00;;;;;14.42;60.54;99812.56;5058626;28;48203;-63
2021/11/02 11:19:29;;;;;;;;;3.00;1.00;;;;;14.36;60.49;99806.84;5055820;28;45433;-72
2021/11/02 11:21:57;;;;;;;;;4.25;2.25;;;;;14.27;61.08;99805.59;5059951;28;45335;-69
2021/11/02 11:24:33;;;;;;;;;1.00;1.00;;;;;14.43;61.64;99808.19;5051524;28;45305;-73
2021/11/02 11:27:04;;;;;;;;;2.00;1.00;;;;;14.89;61.66;99804.56;5059102;28;46539;-74
2021/11/02 11:29:32;;;;;;;;;2.00;1.00;;;;;15.37;60.75;99805.09;5057399;28;45415;-73
2021/11/02 11:31:58;;;;;;;;;2.50;1.00;;;;;16.83;58.95;99805.25;5058474;28;45499;-72
2021/11/02 11:34:32;;;;;;;;;1.00;1.00;;;;;17.62;58.72;99796.22;5059619;28;46176;-66
2021/11/02 11:37:00;;;;;;;;;2.00;1.00;;;;;19.96;54.58;99794.97;5047223;28;46041;-67
2021/11/02 11:39:29;;;;;;;;;1.50;1.50;;;;;20.57;51.70;99790.78;5060221;28;45514;-69
2021/11/02 11:41:55;;;;;;;;;3.25;1.25;;;;;19.94;46.59;99783.72;5057567;28;45500;-70
2021/11/02 11:44:22;;;;;;;;;1.00;1.00;;;;;19.14;48.45;99795.31;5057981;28;45271;-69
2021/11/02 11:46:48;;;;;;;;;2.00;1.00;;;;;18.29;49.08;99786.03;5059255;28;46390;-69
2021/11/02 11:49:28;;;;;;;;;1.00;1.00;;;;;17.74;50.92;99787.47;5054541;28;45297;-67
2021/11/02 11:51:55;;;;;;;;;0.50;0.50;;;;;17.28;49.92;99785.47;5056704;28;45872;-65
2021/11/02 11:54:21;;;;;;;;;1.25;1.25;;;;;16.67;51.51;99775.75;5059622;28;45327;-67
2021/11/02 11:56:48;;;;;;;;;0.00;0.00;;;;;16.30;53.50;99787.81;5059384;28;45460;-69
2021/11/02 11:59:18;;;;;;;;;6.00;3.00;;;;;16.20;54.06;99771.00;5057471;28;45603;-69
2021/11/02 12:01:58;;;;;;;;;1.50;1.50;;;;;16.31;54.78;99776.38;5060153;28;45402;-66
2021/11/02 12:04:26;;;;;;;;;2.00;2.00;;;;;16.41;54.99;99772.19;5054535;28;45304;-68
2021/11/02 12:07:08;;;;;;;;;1.00;1.00;;;;;16.42;53.80;99771.28;5045984;28;46379;-68
2021/11/02 12:09:43;;;;;;;;;1.75;0.00;;;;;16.23;55.15;99766.44;5058993;28;45349;-65
2021/11/02 12:12:09;;;;;;;;;2.25;1.00;;;;;16.13;53.88;99760.09;5059220;28;45324;-70
2021/11/02 12:14:42;;;;;;;;;1.50;1.00;;;;;15.96;54.28;99771.69;5058956;28;45513;-65
2021/11/02 12:17:14;;;;;;;;;2.00;0.50;;;;;15.83;55.20;99768.19;5058954;28;45534;-69
2021/11/02 12:19:51;;;;;;;;;2.00;2.00;;;;;15.68;55.29;99762.16;5058421;28;45664;-66
2021/11/02 12:22:25;;;;;;;;;1.75;1.00;;;;;15.45;55.88;99758.34;5057989;28;45345;-63
2021/11/02 12:25:02;;;;;;;;;3.75;3.00;;;;;15.17;56.07;99761.84;5052041;28;45331;-67
2021/11/02 12:27:37;;;;;;;;;5.00;4.50;;;;;14.89;56.20;99756.63;5054948;28;45416;-64
2021/11/02 12:30:08;;;;;;;;;6.75;6.50;;;;;14.70;57.51;99751.66;5058988;28;45425;-64
2021/11/02 12:32:35;;;;;;;;;7.00;5.25;;;;;14.61;58.39;99758.25;5058338;28;45312;-64
2021/11/02 12:35:05;;;;;;;;;2.00;2.00;;;;;14.60;58.01;99747.91;5058791;28;45220;-68
2021/11/02 12:37:33;;;;;;;;;2.50;1.50;;;;;14.52;57.77;99761.44;5056538;28;46986;-65
2021/11/02 12:40:41;;;;;;;;;4.75;4.75;;;;;14.38;58.70;99756.16;5057710;28;45831;-70
2021/11/02 12:43:23;;;;;;;;;5.25;5.25;;;;;14.47;59.45;99749.59;5015871;28;45387;-66
2021/11/02 12:45:49;;;;;;;;;5.50;3.50;;;;;14.60;59.58;99758.34;5016778;28;45353;-70
2021/11/02 12:48:16;;;;;;;;;2.00;2.00;;;;;14.78;59.23;99748.56;5034528;28;45356;-70
2021/11/02 12:50:45;;;;;;;;;2.00;2.00;;;;;14.88;59.24;99753.16;5049046;28;45457;-69
2021/11/02 12:53:11;;;;;;;;;2.00;2.00;;;;;14.81;58.57;99741.38;5054599;28;45362;-70
2021/11/02 12:55:37;;;;;;;;;2.25;1.00;;;;;14.70;58.67;99741.19;5058981;28;45335;-70
2021/11/02 12:58:11;;;;;;;;;4.50;2.25;;;;;14.63;58.74;99737.28;5057970;28;45993;-65
2021/11/02 13:00:50;;;;;;;;;3.00;2.00;;;;;14.66;59.18;99738.88;5059035;28;45550;-66
2021/11/02 13:03:21;;;;;;;;;2.25;1.00;;;;;14.71;59.19;99732.41;5047280;28;45492;-62
2021/11/02 13:06:14;;;;;;;;;3.00;2.00;;;;;14.76;58.84;99738.22;5058299;28;45548;-64
2021/11/02 13:09:00;;;;;;;;;3.00;1.75;;;;;14.72;59.51;99728.88;5047126;28;46522;-64
2021/11/02 13:11:29;;;;;;;;;3.25;2.25;;;;;14.74;59.39;99732.22;5058877;28;45440;-66
2021/11/02 13:14:04;;;;;;;;;2.50;2.00;;;;;14.88;59.00;99737.47;5059226;28;45304;-68
2021/11/02 13:16:50;;;;;;;;;3.00;2.00;;;;;15.03;58.75;99732.25;5058157;28;45330;-61
2021/11/02 13:19:16;;;;;;;;;3.00;2.00;;;;;15.21;58.99;99725.84;5057918;28;46518;-66
2021/11/02 13:21:42;;;;;;;;;2.25;2.00;;;;;15.30;58.76;99725.28;5058666;28;45341;-71
2021/11/02 13:24:16;;;;;;;;;2.75;0.50;;;;;15.31;57.90;99719.09;5053015;28;45908;-72
2021/11/02 13:26:43;;;;;;;;;2.00;1.25;;;;;15.38;58.23;99723.00;5065690;28;45334;-69
2021/11/02 13:29:24;;;;;;;;;5.25;2.25;;;;;15.47;57.77;99732.91;5054745;28;45326;-69
2021/11/02 13:31:51;;;;;;;;;4.25;3.00;;;;;15.58;57.18;99726.13;5061748;28;45299;-70
2021/11/02 13:34:39;;;;;;;;;2.50;2.00;;;;;15.50;55.67;99729.25;5062034;28;45338;-70
2021/11/02 13:37:08;;;;;;;;;5.50;1.00;;;;;15.38;55.80;99717.75;5050477;28;45438;-67
2021/11/02 13:39:55;;;;;;;;;2.25;2.25;;;;;15.41;56.81;99716.72;5059442;28;45469;-69
2021/11/02 13:42:49;;;;;;;;;1.25;1.00;;;;;15.44;56.54;99701.69;5061717;28;45363;-69
2021/11/02 13:45:19;;;;;;;;;0.50;0.50;;;;;15.34;54.94;99710.22;5060534;28;45422;-69
2021/11/02 13:47:45;;;;;;;;;2.00;1.00;;;;;15.20;55.41;99704.06;5060566;28;45355;-69
2021/11/02 13:50:11;;;;;;;;;1.25;0.75;;;;;15.11;55.51;99698.56;5061350;28;45281;-68
2021/11/02 13:52:38;;;;;;;;;1.00;1.00;;;;;15.04;55.89;99697.28;5061544;28;45624;-69
2021/11/02 13:55:04;;;;;;;;;2.50;1.00;;;;;15.11;56.32;99699.41;5060948;28;45446;-69
2021/11/02 13:57:30;;;;;;;;;0.50;0.50;;;;;15.19;55.85;99704.16;5061615;28;45480;-69
2021/11/02 13:59:55;;;;;;;;;3.00;1.00;;;;;15.20;56.16;99698.81;5060308;28;45349;-69
2021/11/02 14:02:22;;;;;;;;;3.00;1.25;;;;;15.25;55.27;99698.56;5062192;28;45422;-69
2021/11/02 14:04:51;;;;;;;;;2.00;0.00;;;;;15.14;54.79;99693.16;5060154;28;45465;-69
2021/11/02 14:07:22;;;;;;;;;2.25;0.00;;;;;14.99;55.67;99709.78;5061871;28;45363;-68
2021/11/02 14:10:01;;;;;;;;;0.75;0.75;;;;;15.01;56.56;99694.84;5062014;28;45398;-69
2021/11/02 14:12:32;;;;;;;;;8.75;5.75;;;;;15.10;56.92;99700.34;5061333;28;45492;-66
2021/11/02 14:15:10;;;;;;;;;1.00;1.00;;;;;15.15;56.73;99702.69;5061344;28;45266;-65
2021/11/02 14:17:39;;;;;;;;;2.00;1.00;;;;;15.10;56.92;99708.19;5061309;28;45593;-65
2021/11/02 14:20:06;;;;;;;;;2.00;1.00;;;;;15.10;56.70;99702.13;5056673;28;46257;-66
2021/11/02 14:22:44;;;;;;;;;3.00;2.75;;;;;15.05;56.74;99689.34;5055641;28;45328;-64
2021/11/02 14:25:21;;;;;;;;;1.75;0.75;;;;;15.10;56.61;99694.28;5053355;28;45396;-65
2021/11/02 14:27:49;;;;;;;;;0.75;0.75;;;;;15.10;56.05;99689.03;5056452;28;45232;-65
2021/11/02 14:30:36;;;;;;;;;2.25;0.25;;;;;15.08;56.36;99693.53;5061158;28;46597;-67
2021/11/02 14:33:09;;;;;;;;;0.25;0.25;;;;;15.17;56.96;99687.72;5061332;28;45480;-65
2021/11/02 14:35:53;;;;;;;;;3.25;1.00;;;;;15.19;57.10;99691.06;5058856;28;45339;-67
2021/11/02 14:38:22;;;;;;;;;13.00;12.00;;;;;15.15;55.62;99694.81;5054677;28;45418;-68
2021/11/02 14:41:29;;;;;;;;;1.75;1.00;;;;;14.99;55.73;99694.09;5054512;28;46391;-69
2021/11/02 14:44:13;;;;;;;;;1.00;1.00;;;;;14.82;56.09;99706.47;5061815;28;45599;-70
2021/11/02 14:46:40;;;;;;;;;0.00;0.00;;;;;14.69;56.77;99697.69;5056532;28;45921;-69
2021/11/02 14:49:06;;;;;;;;;3.75;2.50;;;;;14.58;57.47;99694.88;5049614;28;45285;-68
2021/11/02 14:51:32;;;;;;;;;1.00;1.00;;;;;14.62;57.77;99691.16;5060645;28;45408;-70
2021/11/02 14:54:19;;;;;;;;;2.00;1.00;;;;;14.69;57.74;99697.69;5059664;28;45424;-71
2021/11/02 14:56:45;;;;;;;;;1.50;1.50;;;;;14.65;57.51;99700.59;5060686;28;45316;-66
2021/11/02 14:59:11;;;;;;;;;1.00;1.00;;;;;14.53;57.78;99702.16;5059118;28;45539;-66
2021/11/02 15:01:40;;;;;;;;;1.00;1.00;;;;;14.48;58.11;99704.22;5057840;28;46506;-65
2021/11/02 15:04:18;;;;;;;;;1.25;1.00;;;;;14.45;58.55;99701.78;5059005;28;45224;-66
2021/11/02 15:06:55;;;;;;;;;1.00;1.00;;;;;14.36;58.78;99699.66;5060910;28;45256;-65
2021/11/02 15:09:23;;;;;;;;;2.50;1.25;;;;;14.30;58.88;99699.13;5059512;28;45428;-64
2021/11/02 15:11:50;;;;;;;;;7.25;4.75;;;;;14.26;59.32;99702.00;5060464;28;46225;-66
2021/11/02 15:14:22;;;;;;;;;2.25;1.75;;;;;14.19;59.02;99692.81;5060235;28;45283;-63
2021/11/02 15:16:57;;;;;;;;;1.00;1.00;;;;;14.13;59.60;99688.81;5060318;28;45389;-63
2021/11/02 15:19:24;;;;;;;;;1.00;1.00;;;;;14.17;60.07;99690.31;5060215;28;45386;-64
2021/11/02 15:21:54;;;;;;;;;0.00;0.00;;;;;14.19;59.88;99693.66;5059996;28;46393;-62
2021/11/02 15:24:24;;;;;;;;;3.25;1.00;;;;;14.16;60.17;99693.84;5048451;28;45474;-64
2021/11/02 15:27:01;;;;;;;;;5.00;2.25;;;;;14.07;60.29;99683.94;5059019;28;45461;-67
2021/11/02 15:29:30;;;;;;;;;6.25;1.75;;;;;13.96;60.38;99683.72;5059875;28;45431;-62
2021/11/02 15:32:21;;;;;;;;;1.25;1.00;;;;;13.92;60.22;99690.06;5060311;28;47579;-69
2021/11/02 15:34:56;;;;;;;;;2.00;1.00;;;;;13.89;59.93;99685.84;5059240;28;45614;-69
2021/11/02 15:37:35;;;;;;;;;2.25;1.00;;;;;13.81;59.53;99682.84;5048679;28;45277;-70
2021/11/02 15:40:12;;;;;;;;;1.25;1.00;;;;;13.72;59.83;99682.53;5061898;28;45323;-65
2021/11/02 15:42:54;;;;;;;;;1.00;0.00;;;;;13.65;60.35;99682.06;5049647;28;45529;-65
2021/11/02 15:45:31;;;;;;;;;1.50;0.25;;;;;13.65;60.27;99679.44;5059756;28;45663;-61
2021/11/02 15:48:10;;;;;;;;;2.00;2.00;;;;;13.65;60.66;99676.84;5060222;28;45323;-64
2021/11/02 15:50:41;;;;;;;;;2.75;0.50;;;;;13.66;60.80;99684.56;5059874;28;45524;-64
2021/11/02 15:53:09;;;;;;;;;1.75;1.00;;;;;13.62;61.02;99679.63;5057828;28;46419;-64
2021/11/02 15:55:35;;;;;;;;;1.50;1.25;;;;;13.55;61.24;99670.44;5059918;28;45307;-69
2021/11/02 15:58:06;;;;;;;;;1.50;1.00;;;;;13.60;60.83;99674.47;5060159;28;45304;-66
2021/11/02 16:00:39;;;;;;;;;1.00;0.00;;;;;13.55;61.03;99673.03;5059692;28;45571;-63
2021/11/02 16:03:05;;;;;;;;;2.00;2.00;;;;;13.50;60.96;99673.31;5060100;28;46100;-63
2021/11/02 16:05:33;;;;;;;;;2.00;1.00;;;;;13.43;61.13;99668.53;5059625;28;45631;-63
2021/11/02 16:08:21;;;;;;;;;1.75;1.00;;;;;13.38;61.41;99674.84;5058299;28;45367;-63
2021/11/02 16:10:49;;;;;;;;;1.50;1.50;;;;;13.31;61.63;99677.88;5057632;28;45520;-63
2021/11/02 16:13:15;;;;;;;;;5.50;1.00;;;;;13.22;61.46;99675.78;5058293;28;45465;-63
2021/11/02 16:15:43;;;;;;;;;2.00;1.00;;;;;13.18;62.05;99674.25;5058735;28;45493;-64
2021/11/02 16:18:22;;;;;;;;;4.00;2.25;;;;;13.14;63.02;99670.09;5059663;28;45353;-64
2021/11/02 16:20:47;;;;;;;;;2.25;2.00;;;;;13.04;63.16;99668.00;5058083;28;45240;-65
2021/11/02 16:23:19;;;;;;;;;4.25;2.75;;;;;13.02;63.53;99666.41;5051900;28;45359;-63
2021/11/02 16:25:51;;;;;;;;;3.00;3.00;;;;;12.98;63.55;99665.72;5048839;28;45307;-63
2021/11/02 16:28:22;;;;;;;;;2.00;2.00;;;;;12.98;64.16;99659.66;5049853;28;45331;-63
2021/11/02 16:30:53;;;;;;;;;1.75;1.00;;;;;12.94;63.93;99663.38;5046864;28;45514;-62
2021/11/02 16:33:39;;;;;;;;;4.00;2.00;;;;;12.94;64.06;99659.00;5052320;28;47039;-63
2021/11/02 16:36:17;;;;;;;;;1.50;1.50;;;;;12.92;64.25;99660.00;5045162;28;46602;-63
2021/11/02 16:38:44;;;;;;;;;2.00;2.00;;;;;12.88;64.78;99661.09;5045989;28;45534;-65
2021/11/02 16:41:21;;;;;;;;;4.00;2.00;;;;;12.82;65.12;99658.84;5058313;28;45385;-64
2021/11/02 16:44:00;;;;;;;;;9.00;4.25;;;;;12.84;65.12;99655.22;5054564;28;47064;-63
2021/11/02 16:46:33;;;;;;;;;4.50;2.00;;;;;12.85;65.42;99656.91;5057909;28;45314;-65
2021/11/02 16:49:02;;;;;;;;;1.50;1.50;;;;;12.86;65.64;99655.13;5059378;28;45326;-65
2021/11/02 16:51:53;;;;;;;;;1.75;1.75;;;;;12.82;66.02;99659.69;5059239;28;45232;-68
2021/11/02 16:54:25;;;;;;;;;1.00;1.00;;;;;12.80;65.70;99656.28;5057574;28;46652;-60
2021/11/02 16:57:01;;;;;;;;;1.75;1.50;;;;;12.79;65.95;99647.63;5058045;28;45677;-64